ADDS TAF Board (Experimental) INFO

IDs: Format: Expanded Condensed

Updated at: 1759 UTC 28 Nov 2014

KMEM - Memphis Intl, TN, US

Issued at 1725 UTC 28 Nov 2014
Time1754Z28/18Z28/19Z28/20Z28/21Z28/22Z28/23Z29/00Z29/01Z29/02Z29/03Z29/04Z29/05Z29/06Z
TypeOBSPRVLPRVLPRVLPRVLPRVLPRVLPRVLPRVLPRVLPRVLPRVLPRVLPRVL
VIS10>6>6>6>6>6>6>6>6>6>6>6>6>6
CIG----------------------------
CoverCLRSKCSKCSKCSKCSKCSKCSCTSCTSCTSCTSCTSCTSCT
FltCat--VFRVFRVFRVFRVFRVFRVFRVFRVFRVFRVFRVFRVFR
WX----------------------------
WDir170190190190190190190190190190190190190190
WSpd1313131313131311111111111111
WGst--181818181818--------------
R09/27
XWnd-13-13-13-13-13-13-13-11-11-11-11-11-11-11
XGst---18-18-18-18-18-18--------------
HWnd3-2-2-2-2-2-2-2-2-2-2-2-2-2
HGst---3-3-3-3-3-3--------------
R18/36
XWnd2-2-2-2-2-2-2-2-2-2-2-2-2-2
XGst---3-3-3-3-3-3--------------
HWnd1313131313131311111111111111
HGst--181818181818--------------
Raw TAF
KMEM 281725Z 2818/2918 19013G18KT P6SM SKC
  FM290000 19011KT P6SM SCT250 WS015/23040KT
  FM291000 19012G16KT P6SM SCT009 BKN250
  FM291200 19012G18KT P6SM BKN009 OVC250
  FM291500 21015G22KT P6SM OVC010


Raw METAR
KMEM 281754Z 17013KT 10SM CLR 10/M03 A3029 RMK AO2 SLP257 T01001033 10106 21006 58038 $
KMEM 281654Z 16013KT 10SM CLR 09/M03 A3036 RMK AO2 SLP281 T00891033 $

TAF Board Legend

Hazard VFR MVFR IFR LIFR
Visibility (sm) >5 3≤X≤5 1≤X<3 <1
Ceiling (100 ft) >30 10≤X≤30 5≤X<10 <5
Wind Speed (kt) <10 10≤X<20 20≤X<30 ≥30
Wind Gust (kt) <15 15≤X<25 25≤X<35 ≥35
Weather No Wx Reported VCTS,-TS,-FZRA TS,FZRA +TS,+FZRA


Page loaded:  17:59 UTC  |   09:59 AM Pacific  |   10:59 AM Mountain  |   11:59 AM Central  |   12:59 PM Eastern

 

ADVISORIES

FORECASTS

FORECASTS

OBSERVATIONS

USER TOOLS

ABOUT US